sensor_id;sensor_type;location;lat;lon;timestamp;pressure;altitude;pressure_sealevel;temperature;humidity
68758;BME280;55747;51.998;4.466;2023-02-19T00:15:24;56746.63;;;-144.48;100.00
68758;BME280;55747;51.998;4.466;2023-02-19T00:21:18;56771.44;;;-144.48;100.00
68758;BME280;55747;51.998;4.466;2023-02-19T00:24:14;56717.69;;;-144.48;100.00
68758;BME280;55747;51.998;4.466;2023-02-19T00:30:38;56756.97;;;-144.48;100.00
68758;BME280;55747;51.998;4.466;2023-02-19T00:33:27;56723.88;;;-144.48;100.00
68758;BME280;55747;51.998;4.466;2023-02-19T00:36:19;56765.22;;;-144.48;100.00
68758;BME280;55747;51.998;4.466;2023-02-19T00:38:54;56746.63;;;-144.48;100.00
68758;BME280;55747;51.998;4.466;2023-02-19T01:05:57;56759.03;;;-144.48;100.00
68758;BME280;55747;51.998;4.466;2023-02-19T01:15:34;56790.03;;;-144.48;100.00
68758;BME280;55747;51.998;4.466;2023-02-19T01:21:35;56779.72;;;-144.48;100.00
68758;BME280;55747;51.998;4.466;2023-02-19T01:24:06;56730.09;;;-144.48;100.00
68758;BME280;55747;51.998;4.466;2023-02-19T01:26:37;56734.22;;;-144.48;100.00
68758;BME280;55747;51.998;4.466;2023-02-19T01:29:16;56756.97;;;-144.48;100.00
68758;BME280;55747;51.998;4.466;2023-02-19T01:35:20;56777.63;;;-144.48;100.00
68758;BME280;55747;51.998;4.466;2023-02-19T01:37:54;56734.22;;;-144.48;100.00
68758;BME280;55747;51.998;4.466;2023-02-19T01:40:41;56771.44;;;-144.48;100.00
68758;BME280;55747;51.998;4.466;2023-02-19T01:46:54;56723.88;;;-144.48;100.00
68758;BME280;55747;51.998;4.466;2023-02-19T01:49:30;56769.38;;;-144.48;100.00
68758;BME280;55747;51.998;4.466;2023-02-19T01:52:12;56756.97;;;-144.48;100.00
68758;BME280;55747;51.998;4.466;2023-02-19T01:54:46;56717.69;;;-144.48;100.00
68758;BME280;55747;51.998;4.466;2023-02-19T02:00:19;56748.69;;;-144.48;100.00
68758;BME280;55747;51.998;4.466;2023-02-19T02:02:56;56732.16;;;-144.48;100.00
68758;BME280;55747;51.998;4.466;2023-02-19T02:08:27;56740.41;;;-144.48;100.00
68758;BME280;55747;51.998;4.466;2023-02-19T02:11:13;56756.97;;;-144.48;100.00
68758;BME280;55747;51.998;4.466;2023-02-19T02:13:41;56715.59;;;-144.48;100.00
68758;BME280;55747;51.998;4.466;2023-02-19T02:19:54;56781.78;;;-144.48;100.00
68758;BME280;55747;51.998;4.466;2023-02-19T02:22:43;56761.09;;;-144.48;100.00
68758;BME280;55747;51.998;4.466;2023-02-19T02:28:43;56732.16;;;-144.48;100.00
68758;BME280;55747;51.998;4.466;2023-02-19T02:31:27;56725.94;;;-144.48;100.00
68758;BME280;55747;51.998;4.466;2023-02-19T02:34:17;56740.41;;;-144.48;100.00
68758;BME280;55747;51.998;4.466;2023-02-19T02:36:46;56736.28;;;-144.48;100.00
68758;BME280;55747;51.998;4.466;2023-02-19T02:39:18;56744.56;;;-144.48;100.00
68758;BME280;55747;51.998;4.466;2023-02-19T02:41:54;56785.91;;;-144.48;100.00
68758;BME280;55747;51.998;4.466;2023-02-19T02:44:39;56734.22;;;-144.48;100.00
68758;BME280;55747;51.998;4.466;2023-02-19T02:47:25;56756.97;;;-144.48;100.00
68758;BME280;55747;51.998;4.466;2023-02-19T02:50:22;56763.16;;;-144.48;100.00
68758;BME280;55747;51.998;4.466;2023-02-19T02:53:05;56765.22;;;-144.48;100.00
68758;BME280;55747;51.998;4.466;2023-02-19T02:55:53;56750.75;;;-144.48;100.00
68758;BME280;55747;51.998;4.466;2023-02-19T02:58:27;56732.16;;;-144.48;100.00
68758;BME280;55747;51.998;4.466;2023-02-19T03:00:58;56779.72;;;-144.48;100.00
68758;BME280;55747;51.998;4.466;2023-02-19T03:03:46;56721.81;;;-144.48;100.00
68758;BME280;55747;51.998;4.466;2023-02-19T03:06:16;56730.09;;;-144.48;100.00
68758;BME280;55747;51.998;4.466;2023-02-19T03:11:16;56748.69;;;-144.48;100.00
68758;BME280;55747;51.998;4.466;2023-02-19T03:14:09;56742.50;;;-144.48;100.00
68758;BME280;55747;51.998;4.466;2023-02-19T03:16:57;56765.22;;;-144.48;100.00
68758;BME280;55747;51.998;4.466;2023-02-19T03:19:49;56744.56;;;-144.48;100.00
68758;BME280;55747;51.998;4.466;2023-02-19T03:22:25;56752.81;;;-144.48;100.00
68758;BME280;55747;51.998;4.466;2023-02-19T03:25:18;56728.00;;;-144.48;100.00
68758;BME280;55747;51.998;4.466;2023-02-19T03:28:04;56767.31;;;-144.48;100.00
68758;BME280;55747;51.998;4.466;2023-02-19T03:30:35;56742.50;;;-144.48;100.00
68758;BME280;55747;51.998;4.466;2023-02-19T03:33:13;56748.69;;;-144.48;100.00
68758;BME280;55747;51.998;4.466;2023-02-19T03:35:52;56794.19;;;-144.48;100.00
68758;BME280;55747;51.998;4.466;2023-02-19T03:38:23;56792.09;;;-144.48;100.00
68758;BME280;55747;51.998;4.466;2023-02-19T03:41:08;56746.63;;;-144.48;100.00
68758;BME280;55747;51.998;4.466;2023-02-19T03:43:39;56736.28;;;-144.48;100.00
68758;BME280;55747;51.998;4.466;2023-02-19T03:55:22;56736.28;;;-144.48;100.00
68758;BME280;55747;51.998;4.466;2023-02-19T03:58:17;56769.38;;;-144.48;100.00
68758;BME280;55747;51.998;4.466;2023-02-19T04:01:06;56719.75;;;-144.48;100.00
68758;BME280;55747;51.998;4.466;2023-02-19T04:07:20;56744.56;;;-144.48;100.00
68758;BME280;55747;51.998;4.466;2023-02-19T04:12:50;56767.31;;;-144.48;100.00
68758;BME280;55747;51.998;4.466;2023-02-19T04:25:38;56742.50;;;-144.48;100.00
68758;BME280;55747;51.998;4.466;2023-02-19T04:28:16;56723.88;;;-144.48;100.00
68758;BME280;55747;51.998;4.466;2023-02-19T04:31:16;56746.63;;;-144.48;100.00
68758;BME280;55747;51.998;4.466;2023-02-19T04:40:32;56771.44;;;-144.48;100.00
68758;BME280;55747;51.998;4.466;2023-02-19T04:46:50;56773.50;;;-144.48;100.00
68758;BME280;55747;51.998;4.466;2023-02-19T04:49:34;56717.69;;;-144.48;100.00
68758;BME280;55747;51.998;4.466;2023-02-19T04:56:00;56742.50;;;-144.48;100.00
68758;BME280;55747;51.998;4.466;2023-02-19T04:59:12;56721.81;;;-144.48;100.00
68758;BME280;55747;51.998;4.466;2023-02-19T05:16:09;56723.88;;;-144.48;100.00
68758;BME280;55747;51.998;4.466;2023-02-19T05:19:12;56717.69;;;-144.48;100.00
68758;BME280;55747;51.998;4.466;2023-02-19T05:22:16;56744.56;;;-144.48;100.00
68758;BME280;55747;51.998;4.466;2023-02-19T05:28:41;56756.97;;;-144.48;100.00
68758;BME280;55747;51.998;4.466;2023-02-19T05:31:16;56734.22;;;-144.48;100.00
68758;BME280;55747;51.998;4.466;2023-02-19T05:33:41;56754.91;;;-144.48;100.00
68758;BME280;55747;51.998;4.466;2023-02-19T05:36:25;56767.31;;;-144.48;100.00
68758;BME280;55747;51.998;4.466;2023-02-19T05:39:13;56736.28;;;-144.48;100.00
68758;BME280;55747;51.998;4.466;2023-02-19T05:45:44;56734.22;;;-144.48;100.00
68758;BME280;55747;51.998;4.466;2023-02-19T05:48:31;56744.56;;;-144.48;100.00
68758;BME280;55747;51.998;4.466;2023-02-19T05:51:04;56765.22;;;-144.48;100.00
68758;BME280;55747;51.998;4.466;2023-02-19T05:57:32;56773.50;;;-144.48;100.00
68758;BME280;55747;51.998;4.466;2023-02-19T06:04:14;56744.56;;;-144.48;100.00
68758;BME280;55747;51.998;4.466;2023-02-19T06:10:16;56748.69;;;-144.48;100.00
68758;BME280;55747;51.998;4.466;2023-02-19T06:26:44;56763.16;;;-144.48;100.00
68758;BME280;55747;51.998;4.466;2023-02-19T06:29:49;56746.63;;;-144.48;100.00
68758;BME280;55747;51.998;4.466;2023-02-19T06:32:25;56732.16;;;-144.48;100.00
68758;BME280;55747;51.998;4.466;2023-02-19T06:38:31;56748.69;;;-144.48;100.00
68758;BME280;55747;51.998;4.466;2023-02-19T06:41:07;56744.56;;;-144.48;100.00
68758;BME280;55747;51.998;4.466;2023-02-19T06:43:39;56748.69;;;-144.48;100.00
68758;BME280;55747;51.998;4.466;2023-02-19T06:46:09;56748.69;;;-144.48;100.00
68758;BME280;55747;51.998;4.466;2023-02-19T06:48:49;56756.97;;;-144.48;100.00
68758;BME280;55747;51.998;4.466;2023-02-19T06:54:46;56781.78;;;-144.48;100.00
68758;BME280;55747;51.998;4.466;2023-02-19T06:57:58;56761.09;;;-144.48;100.00
68758;BME280;55747;51.998;4.466;2023-02-19T07:00:48;56773.50;;;-144.48;100.00
68758;BME280;55747;51.998;4.466;2023-02-19T07:03:23;56794.19;;;-144.48;100.00
68758;BME280;55747;51.998;4.466;2023-02-19T07:05:50;56752.81;;;-144.48;100.00
68758;BME280;55747;51.998;4.466;2023-02-19T07:08:42;56748.69;;;-144.48;100.00
68758;BME280;55747;51.998;4.466;2023-02-19T07:11:19;56754.91;;;-144.48;100.00
68758;BME280;55747;51.998;4.466;2023-02-19T10:46:29;56759.03;;;-144.48;100.00
68758;BME280;55747;51.998;4.466;2023-02-19T12:18:55;56709.41;;;-144.48;100.00
68758;BME280;55747;51.998;4.466;2023-02-19T12:54:52;56725.94;;;-144.48;99.15
68758;BME280;55747;51.998;4.466;2023-02-19T14:35:03;56730.09;;;-144.48;89.31
68758;BME280;55747;51.998;4.466;2023-02-19T14:44:34;56728.00;;;-144.48;100.00
68758;BME280;55747;51.998;4.466;2023-02-19T14:47:29;56723.88;;;-144.48;100.00
68758;BME280;55747;51.998;4.466;2023-02-19T14:50:36;56730.09;;;-144.48;100.00
68758;BME280;55747;51.998;4.466;2023-02-19T14:53:23;56728.00;;;-144.48;100.00
68758;BME280;55747;51.998;4.466;2023-02-19T14:59:38;56721.81;;;-144.48;95.67
68758;BME280;55747;51.998;4.466;2023-02-19T15:02:13;56750.75;;;-144.48;91.50
68758;BME280;55747;51.998;4.466;2023-02-19T15:07:53;56707.34;;;-144.48;87.19
68758;BME280;55747;51.998;4.466;2023-02-19T15:10:46;56740.41;;;-144.48;85.27
68758;BME280;55747;51.998;4.466;2023-02-19T15:13:53;56713.53;;;-144.48;87.55
68758;BME280;55747;51.998;4.466;2023-02-19T15:23:31;56715.59;;;-144.48;91.93
68758;BME280;55747;51.998;4.466;2023-02-19T15:33:18;56723.88;;;-144.48;95.44
68758;BME280;55747;51.998;4.466;2023-02-19T15:39:21;56742.50;;;-144.48;97.12
68758;BME280;55747;51.998;4.466;2023-02-19T15:42:07;56728.00;;;-144.48;96.10
68758;BME280;55747;51.998;4.466;2023-02-19T15:57:54;56709.41;;;-144.48;96.96
68758;BME280;55747;51.998;4.466;2023-02-19T16:00:54;56734.22;;;-144.48;97.14
68758;BME280;55747;51.998;4.466;2023-02-19T16:10:54;56738.34;;;-144.48;100.00
68758;BME280;55747;51.998;4.466;2023-02-19T16:13:49;56725.94;;;-144.48;100.00
68758;BME280;55747;51.998;4.466;2023-02-19T16:23:25;56715.59;;;-144.48;100.00
68758;BME280;55747;51.998;4.466;2023-02-19T16:26:52;56746.63;;;-144.48;100.00
68758;BME280;55747;51.998;4.466;2023-02-19T16:29:37;56730.09;;;-144.48;100.00
68758;BME280;55747;51.998;4.466;2023-02-19T16:49:19;56740.41;;;-144.48;100.00
68758;BME280;55747;51.998;4.466;2023-02-19T16:52:24;56738.34;;;-144.48;100.00
68758;BME280;55747;51.998;4.466;2023-02-19T17:01:49;56781.78;;;-144.48;100.00
68758;BME280;55747;51.998;4.466;2023-02-19T17:07:48;56734.22;;;-144.48;100.00
68758;BME280;55747;51.998;4.466;2023-02-19T17:11:05;56738.34;;;-144.48;100.00
68758;BME280;55747;51.998;4.466;2023-02-19T17:14:01;56742.50;;;-144.48;100.00
68758;BME280;55747;51.998;4.466;2023-02-19T17:16:53;56765.22;;;-144.48;100.00
68758;BME280;55747;51.998;4.466;2023-02-19T17:23:10;56748.69;;;-144.48;100.00
68758;BME280;55747;51.998;4.466;2023-02-19T17:29:03;56725.94;;;-144.48;100.00
68758;BME280;55747;51.998;4.466;2023-02-19T17:35:22;56736.28;;;-144.48;100.00
68758;BME280;55747;51.998;4.466;2023-02-19T17:38:27;56752.81;;;-144.48;100.00
68758;BME280;55747;51.998;4.466;2023-02-19T17:44:34;56742.50;;;-144.48;100.00
68758;BME280;55747;51.998;4.466;2023-02-19T17:49:49;56711.47;;;-144.48;100.00
68758;BME280;55747;51.998;4.466;2023-02-19T17:52:51;56761.09;;;-144.48;100.00
68758;BME280;55747;51.998;4.466;2023-02-19T18:04:07;56734.22;;;-144.48;100.00
68758;BME280;55747;51.998;4.466;2023-02-19T18:07:31;56734.22;;;-144.48;100.00
68758;BME280;55747;51.998;4.466;2023-02-19T18:21:24;56738.34;;;-144.48;100.00
68758;BME280;55747;51.998;4.466;2023-02-19T18:34:25;56752.81;;;-144.48;100.00
68758;BME280;55747;51.998;4.466;2023-02-19T18:40:33;56771.44;;;-144.48;100.00
68758;BME280;55747;51.998;4.466;2023-02-19T18:43:48;56742.50;;;-144.48;100.00
68758;BME280;55747;51.998;4.466;2023-02-19T18:50:18;56775.56;;;-144.48;100.00
68758;BME280;55747;51.998;4.466;2023-02-19T18:53:37;56761.09;;;-144.48;100.00
68758;BME280;55747;51.998;4.466;2023-02-19T19:09:59;56717.69;;;-144.48;100.00
68758;BME280;55747;51.998;4.466;2023-02-19T19:16:49;56763.16;;;-144.48;100.00
68758;BME280;55747;51.998;4.466;2023-02-19T19:41:04;56723.88;;;-144.48;100.00
68758;BME280;55747;51.998;4.466;2023-02-19T20:22:12;56761.09;;;-144.48;100.00
68758;BME280;55747;51.998;4.466;2023-02-19T20:36:02;56779.72;;;-144.48;100.00
68758;BME280;55747;51.998;4.466;2023-02-19T20:38:43;56781.78;;;-144.48;100.00
68758;BME280;55747;51.998;4.466;2023-02-19T21:16:07;56732.16;;;-144.48;100.00
68758;BME280;55747;51.998;4.466;2023-02-19T21:18:38;56725.94;;;-144.48;100.00
68758;BME280;55747;51.998;4.466;2023-02-19T21:21:13;56769.38;;;-144.48;100.00
68758;BME280;55747;51.998;4.466;2023-02-19T21:23:59;56723.88;;;-144.48;100.00
68758;BME280;55747;51.998;4.466;2023-02-19T21:29:24;56717.69;;;-144.48;100.00
68758;BME280;55747;51.998;4.466;2023-02-19T21:31:55;56773.50;;;-144.48;100.00
68758;BME280;55747;51.998;4.466;2023-02-19T21:34:23;56709.41;;;-144.48;100.00
68758;BME280;55747;51.998;4.466;2023-02-19T21:36:57;56736.28;;;-144.48;100.00
68758;BME280;55747;51.998;4.466;2023-02-19T21:39:24;56779.72;;;-144.48;100.00
68758;BME280;55747;51.998;4.466;2023-02-19T21:41:52;56728.00;;;-144.48;100.00
68758;BME280;55747;51.998;4.466;2023-02-19T21:44:36;56773.50;;;-144.48;100.00
68758;BME280;55747;51.998;4.466;2023-02-19T21:47:13;56777.63;;;-144.48;100.00
68758;BME280;55747;51.998;4.466;2023-02-19T21:49:46;56773.50;;;-144.48;100.00
68758;BME280;55747;51.998;4.466;2023-02-19T21:52:19;56771.44;;;-144.48;100.00
68758;BME280;55747;51.998;4.466;2023-02-19T21:55:07;56804.50;;;-144.48;100.00
68758;BME280;55747;51.998;4.466;2023-02-19T21:57:38;56765.22;;;-144.48;100.00
68758;BME280;55747;51.998;4.466;2023-02-19T22:00:09;56781.78;;;-144.48;100.00
68758;BME280;55747;51.998;4.466;2023-02-19T22:02:37;56796.25;;;-144.48;100.00
68758;BME280;55747;51.998;4.466;2023-02-19T22:05:07;56773.50;;;-144.48;100.00
68758;BME280;55747;51.998;4.466;2023-02-19T22:07:32;56759.03;;;-144.48;100.00
68758;BME280;55747;51.998;4.466;2023-02-19T22:09:57;56775.56;;;-144.48;100.00
68758;BME280;55747;51.998;4.466;2023-02-19T22:12:23;56754.91;;;-144.48;100.00
68758;BME280;55747;51.998;4.466;2023-02-19T22:14:48;56752.81;;;-144.48;100.00
68758;BME280;55747;51.998;4.466;2023-02-19T22:17:13;56767.31;;;-144.48;100.00
68758;BME280;55747;51.998;4.466;2023-02-19T22:19:39;56734.22;;;-144.48;100.00
68758;BME280;55747;51.998;4.466;2023-02-19T22:22:07;56779.72;;;-144.48;100.00
68758;BME280;55747;51.998;4.466;2023-02-19T22:24:35;56746.63;;;-144.48;100.00
68758;BME280;55747;51.998;4.466;2023-02-19T22:27:00;56761.09;;;-144.48;100.00
68758;BME280;55747;51.998;4.466;2023-02-19T22:29:26;56703.19;;;-144.48;100.00
68758;BME280;55747;51.998;4.466;2023-02-19T22:31:51;56732.16;;;-144.48;100.00
68758;BME280;55747;51.998;4.466;2023-02-19T22:34:17;56728.00;;;-144.48;100.00
68758;BME280;55747;51.998;4.466;2023-02-19T22:36:43;56725.94;;;-144.48;100.00
68758;BME280;55747;51.998;4.466;2023-02-19T22:39:20;56734.22;;;-144.48;100.00
68758;BME280;55747;51.998;4.466;2023-02-19T22:41:46;56761.09;;;-144.48;100.00
68758;BME280;55747;51.998;4.466;2023-02-19T22:44:14;56752.81;;;-144.48;100.00
68758;BME280;55747;51.998;4.466;2023-02-19T22:46:50;56744.56;;;-144.48;100.00
68758;BME280;55747;51.998;4.466;2023-02-19T22:49:18;56740.41;;;-144.48;100.00
68758;BME280;55747;51.998;4.466;2023-02-19T22:52:10;56752.81;;;-144.48;100.00
68758;BME280;55747;51.998;4.466;2023-02-19T22:54:38;56736.28;;;-144.48;100.00
68758;BME280;55747;51.998;4.466;2023-02-19T22:57:04;56748.69;;;-144.48;100.00
68758;BME280;55747;51.998;4.466;2023-02-19T22:59:30;56765.22;;;-144.48;100.00
68758;BME280;55747;51.998;4.466;2023-02-19T23:01:55;56783.84;;;-144.48;100.00
68758;BME280;55747;51.998;4.466;2023-02-19T23:04:23;56725.94;;;-144.48;100.00
68758;BME280;55747;51.998;4.466;2023-02-19T23:06:52;56759.03;;;-144.48;100.00
68758;BME280;55747;51.998;4.466;2023-02-19T23:09:34;56742.50;;;-144.48;100.00
68758;BME280;55747;51.998;4.466;2023-02-19T23:12:05;56775.56;;;-144.48;100.00
68758;BME280;55747;51.998;4.466;2023-02-19T23:14:31;56777.63;;;-144.48;100.00
68758;BME280;55747;51.998;4.466;2023-02-19T23:16:57;56725.94;;;-144.48;100.00
68758;BME280;55747;51.998;4.466;2023-02-19T23:19:25;56723.88;;;-144.48;100.00
68758;BME280;55747;51.998;4.466;2023-02-19T23:21:50;56779.72;;;-144.48;100.00
68758;BME280;55747;51.998;4.466;2023-02-19T23:24:16;56756.97;;;-144.48;100.00
68758;BME280;55747;51.998;4.466;2023-02-19T23:26:51;56723.88;;;-144.48;100.00
68758;BME280;55747;51.998;4.466;2023-02-19T23:29:27;56752.81;;;-144.48;100.00
68758;BME280;55747;51.998;4.466;2023-02-19T23:32:12;56761.09;;;-144.48;100.00
68758;BME280;55747;51.998;4.466;2023-02-19T23:34:48;56738.34;;;-144.48;100.00
68758;BME280;55747;51.998;4.466;2023-02-19T23:37:17;56765.22;;;-144.48;100.00
68758;BME280;55747;51.998;4.466;2023-02-19T23:39:54;56732.16;;;-144.48;100.00
68758;BME280;55747;51.998;4.466;2023-02-19T23:42:22;56719.75;;;-144.48;100.00
68758;BME280;55747;51.998;4.466;2023-02-19T23:45:01;56775.56;;;-144.48;100.00
68758;BME280;55747;51.998;4.466;2023-02-19T23:47:50;56752.81;;;-144.48;100.00
68758;BME280;55747;51.998;4.466;2023-02-19T23:50:18;56742.50;;;-144.48;100.00
68758;BME280;55747;51.998;4.466;2023-02-19T23:52:49;56705.28;;;-144.48;100.00
68758;BME280;55747;51.998;4.466;2023-02-19T23:55:22;56759.03;;;-144.48;100.00
68758;BME280;55747;51.998;4.466;2023-02-19T23:58:13;56744.56;;;-144.48;100.00
